sensor_id;sensor_type;location;lat;lon;timestamp;P1;durP1;ratioP1;P2;durP2;ratioP2
10144;SDS011;5113;41.822;23.564;2022-12-08T00:01:58;30.50;;;14.17;;
10144;SDS011;5113;41.822;23.564;2022-12-08T00:05:07;21.73;;;13.40;;
10144;SDS011;5113;41.822;23.564;2022-12-08T00:08:32;30.77;;;13.90;;
10144;SDS011;5113;41.822;23.564;2022-12-08T00:11:57;21.93;;;13.03;;
10144;SDS011;5113;41.822;23.564;2022-12-08T00:15:06;21.03;;;12.43;;
10144;SDS011;5113;41.822;23.564;2022-12-08T00:18:13;23.70;;;13.47;;
10144;SDS011;5113;41.822;23.564;2022-12-08T00:21:19;24.87;;;13.00;;
10144;SDS011;5113;41.822;23.564;2022-12-08T00:24:28;34.77;;;16.27;;
10144;SDS011;5113;41.822;23.564;2022-12-08T00:27:37;23.27;;;12.87;;
10144;SDS011;5113;41.822;23.564;2022-12-08T00:30:45;24.83;;;12.33;;
10144;SDS011;5113;41.822;23.564;2022-12-08T00:33:51;19.30;;;11.40;;
10144;SDS011;5113;41.822;23.564;2022-12-08T00:36:57;25.47;;;12.70;;
10144;SDS011;5113;41.822;23.564;2022-12-08T00:40:04;24.23;;;11.23;;
10144;SDS011;5113;41.822;23.564;2022-12-08T00:43:11;20.07;;;11.73;;
10144;SDS011;5113;41.822;23.564;2022-12-08T00:46:19;17.13;;;10.37;;
10144;SDS011;5113;41.822;23.564;2022-12-08T00:49:25;24.87;;;12.67;;
10144;SDS011;5113;41.822;23.564;2022-12-08T00:52:32;19.53;;;11.80;;
10144;SDS011;5113;41.822;23.564;2022-12-08T00:55:38;34.13;;;19.73;;
10144;SDS011;5113;41.822;23.564;2022-12-08T00:58:44;29.73;;;18.53;;
10144;SDS011;5113;41.822;23.564;2022-12-08T01:01:52;22.43;;;12.00;;
10144;SDS011;5113;41.822;23.564;2022-12-08T01:04:58;13.67;;;9.00;;
10144;SDS011;5113;41.822;23.564;2022-12-08T01:08:04;16.10;;;9.90;;
10144;SDS011;5113;41.822;23.564;2022-12-08T01:11:12;16.57;;;9.67;;
10144;SDS011;5113;41.822;23.564;2022-12-08T01:14:20;20.17;;;10.60;;
10144;SDS011;5113;41.822;23.564;2022-12-08T01:17:28;21.40;;;9.43;;
10144;SDS011;5113;41.822;23.564;2022-12-08T01:20:34;20.07;;;11.33;;
10144;SDS011;5113;41.822;23.564;2022-12-08T01:23:40;26.23;;;14.40;;
10144;SDS011;5113;41.822;23.564;2022-12-08T01:26:48;22.40;;;12.53;;
10144;SDS011;5113;41.822;23.564;2022-12-08T01:29:55;22.87;;;13.03;;
10144;SDS011;5113;41.822;23.564;2022-12-08T01:33:03;23.10;;;12.40;;
10144;SDS011;5113;41.822;23.564;2022-12-08T01:36:15;17.27;;;10.53;;
10144;SDS011;5113;41.822;23.564;2022-12-08T01:39:24;27.13;;;14.67;;
10144;SDS011;5113;41.822;23.564;2022-12-08T01:42:31;22.53;;;13.27;;
10144;SDS011;5113;41.822;23.564;2022-12-08T01:45:37;21.23;;;11.97;;
10144;SDS011;5113;41.822;23.564;2022-12-08T01:48:47;26.33;;;12.47;;
10144;SDS011;5113;41.822;23.564;2022-12-08T01:51:56;18.10;;;11.30;;
10144;SDS011;5113;41.822;23.564;2022-12-08T01:55:08;24.63;;;12.33;;
10144;SDS011;5113;41.822;23.564;2022-12-08T01:58:21;25.50;;;12.73;;
10144;SDS011;5113;41.822;23.564;2022-12-08T02:01:31;22.93;;;13.27;;
10144;SDS011;5113;41.822;23.564;2022-12-08T02:04:39;26.20;;;14.07;;
10144;SDS011;5113;41.822;23.564;2022-12-08T02:10:53;22.27;;;12.73;;
10144;SDS011;5113;41.822;23.564;2022-12-08T02:13:59;24.90;;;14.03;;
10144;SDS011;5113;41.822;23.564;2022-12-08T02:17:13;24.60;;;12.80;;
10144;SDS011;5113;41.822;23.564;2022-12-08T02:20:34;26.77;;;14.47;;
10144;SDS011;5113;41.822;23.564;2022-12-08T02:23:50;29.63;;;15.10;;
10144;SDS011;5113;41.822;23.564;2022-12-08T02:30:39;23.90;;;13.70;;
10144;SDS011;5113;41.822;23.564;2022-12-08T02:37:32;19.00;;;13.10;;
10144;SDS011;5113;41.822;23.564;2022-12-08T02:40:47;25.40;;;13.80;;
10144;SDS011;5113;41.822;23.564;2022-12-08T02:43:59;19.20;;;13.33;;
10144;SDS011;5113;41.822;23.564;2022-12-08T02:47:11;28.67;;;15.67;;
10144;SDS011;5113;41.822;23.564;2022-12-08T02:50:21;16.87;;;12.57;;
10144;SDS011;5113;41.822;23.564;2022-12-08T02:53:28;22.50;;;14.37;;
10144;SDS011;5113;41.822;23.564;2022-12-08T02:56:44;25.70;;;11.93;;
10144;SDS011;5113;41.822;23.564;2022-12-08T03:00:17;31.40;;;20.13;;
10144;SDS011;5113;41.822;23.564;2022-12-08T03:03:27;28.60;;;17.23;;
10144;SDS011;5113;41.822;23.564;2022-12-08T03:06:41;28.83;;;16.50;;
10144;SDS011;5113;41.822;23.564;2022-12-08T03:09:53;27.43;;;15.37;;
10144;SDS011;5113;41.822;23.564;2022-12-08T03:13:03;23.30;;;12.83;;
10144;SDS011;5113;41.822;23.564;2022-12-08T03:16:15;19.47;;;12.33;;
10144;SDS011;5113;41.822;23.564;2022-12-08T03:19:27;36.77;;;14.23;;
10144;SDS011;5113;41.822;23.564;2022-12-08T03:22:38;23.90;;;13.67;;
10144;SDS011;5113;41.822;23.564;2022-12-08T03:25:47;24.83;;;13.07;;
10144;SDS011;5113;41.822;23.564;2022-12-08T03:29:01;27.90;;;15.70;;
10144;SDS011;5113;41.822;23.564;2022-12-08T03:32:10;37.73;;;19.33;;
10144;SDS011;5113;41.822;23.564;2022-12-08T03:35:25;33.27;;;19.63;;
10144;SDS011;5113;41.822;23.564;2022-12-08T03:38:39;27.27;;;18.23;;
10144;SDS011;5113;41.822;23.564;2022-12-08T03:41:47;21.77;;;13.77;;
10144;SDS011;5113;41.822;23.564;2022-12-08T03:44:53;21.07;;;11.93;;
10144;SDS011;5113;41.822;23.564;2022-12-08T03:47:59;19.53;;;11.70;;
10144;SDS011;5113;41.822;23.564;2022-12-08T03:51:06;28.80;;;14.47;;
10144;SDS011;5113;41.822;23.564;2022-12-08T03:54:13;24.57;;;12.73;;
10144;SDS011;5113;41.822;23.564;2022-12-08T03:57:20;29.60;;;14.53;;
10144;SDS011;5113;41.822;23.564;2022-12-08T04:00:26;24.97;;;13.47;;
10144;SDS011;5113;41.822;23.564;2022-12-08T04:03:32;22.80;;;13.83;;
10144;SDS011;5113;41.822;23.564;2022-12-08T04:06:38;48.77;;;22.10;;
10144;SDS011;5113;41.822;23.564;2022-12-08T04:09:46;17.33;;;12.10;;
10144;SDS011;5113;41.822;23.564;2022-12-08T04:12:52;60.97;;;26.00;;
10144;SDS011;5113;41.822;23.564;2022-12-08T04:15:59;56.00;;;28.20;;
10144;SDS011;5113;41.822;23.564;2022-12-08T04:19:05;39.97;;;19.37;;
10144;SDS011;5113;41.822;23.564;2022-12-08T04:22:11;58.57;;;31.70;;
10144;SDS011;5113;41.822;23.564;2022-12-08T04:25:18;56.73;;;24.87;;
10144;SDS011;5113;41.822;23.564;2022-12-08T04:28:24;42.27;;;24.13;;
10144;SDS011;5113;41.822;23.564;2022-12-08T04:31:32;28.27;;;15.93;;
10144;SDS011;5113;41.822;23.564;2022-12-08T04:34:38;21.13;;;12.83;;
10144;SDS011;5113;41.822;23.564;2022-12-08T04:37:44;25.63;;;13.67;;
10144;SDS011;5113;41.822;23.564;2022-12-08T04:40:52;24.20;;;12.90;;
10144;SDS011;5113;41.822;23.564;2022-12-08T04:43:58;27.00;;;12.83;;
10144;SDS011;5113;41.822;23.564;2022-12-08T04:47:05;18.60;;;13.30;;
10144;SDS011;5113;41.822;23.564;2022-12-08T04:50:11;25.70;;;14.77;;
10144;SDS011;5113;41.822;23.564;2022-12-08T04:53:17;29.93;;;15.33;;
10144;SDS011;5113;41.822;23.564;2022-12-08T04:56:26;31.47;;;17.97;;
10144;SDS011;5113;41.822;23.564;2022-12-08T04:59:32;16.73;;;12.23;;
10144;SDS011;5113;41.822;23.564;2022-12-08T05:02:39;28.77;;;16.13;;
10144;SDS011;5113;41.822;23.564;2022-12-08T05:05:45;34.30;;;19.23;;
10144;SDS011;5113;41.822;23.564;2022-12-08T05:08:51;27.57;;;13.80;;
10144;SDS011;5113;41.822;23.564;2022-12-08T05:11:59;30.80;;;13.57;;
10144;SDS011;5113;41.822;23.564;2022-12-08T05:15:05;28.13;;;16.50;;
10144;SDS011;5113;41.822;23.564;2022-12-08T05:18:12;23.87;;;14.87;;
10144;SDS011;5113;41.822;23.564;2022-12-08T05:21:19;23.47;;;13.17;;
10144;SDS011;5113;41.822;23.564;2022-12-08T05:24:25;21.43;;;11.50;;
10144;SDS011;5113;41.822;23.564;2022-12-08T05:27:32;22.30;;;11.77;;
10144;SDS011;5113;41.822;23.564;2022-12-08T05:30:39;37.93;;;15.73;;
10144;SDS011;5113;41.822;23.564;2022-12-08T05:33:45;26.97;;;15.10;;
10144;SDS011;5113;41.822;23.564;2022-12-08T05:36:53;31.00;;;14.80;;
10144;SDS011;5113;41.822;23.564;2022-12-08T05:39:59;21.60;;;13.30;;
10144;SDS011;5113;41.822;23.564;2022-12-08T05:43:07;21.00;;;11.57;;
10144;SDS011;5113;41.822;23.564;2022-12-08T05:46:14;20.90;;;11.83;;
10144;SDS011;5113;41.822;23.564;2022-12-08T05:49:22;20.60;;;11.87;;
10144;SDS011;5113;41.822;23.564;2022-12-08T05:52:28;23.17;;;16.17;;
10144;SDS011;5113;41.822;23.564;2022-12-08T05:55:34;27.27;;;16.80;;
10144;SDS011;5113;41.822;23.564;2022-12-08T05:58:42;33.80;;;19.07;;
10144;SDS011;5113;41.822;23.564;2022-12-08T06:01:48;45.07;;;20.97;;
10144;SDS011;5113;41.822;23.564;2022-12-08T06:04:55;44.67;;;23.20;;
10144;SDS011;5113;41.822;23.564;2022-12-08T06:08:01;41.50;;;20.50;;
10144;SDS011;5113;41.822;23.564;2022-12-08T06:11:08;45.23;;;24.47;;
10144;SDS011;5113;41.822;23.564;2022-12-08T06:14:15;42.67;;;25.47;;
10144;SDS011;5113;41.822;23.564;2022-12-08T06:17:21;42.97;;;21.90;;
10144;SDS011;5113;41.822;23.564;2022-12-08T06:20:28;51.80;;;27.33;;
10144;SDS011;5113;41.822;23.564;2022-12-08T06:23:34;59.43;;;27.33;;
10144;SDS011;5113;41.822;23.564;2022-12-08T06:26:40;36.60;;;17.57;;
10144;SDS011;5113;41.822;23.564;2022-12-08T06:29:48;32.43;;;17.07;;
10144;SDS011;5113;41.822;23.564;2022-12-08T06:32:54;26.83;;;15.70;;
10144;SDS011;5113;41.822;23.564;2022-12-08T06:36:00;38.87;;;18.17;;
10144;SDS011;5113;41.822;23.564;2022-12-08T06:39:06;28.97;;;18.43;;
10144;SDS011;5113;41.822;23.564;2022-12-08T06:42:13;31.63;;;17.27;;
10144;SDS011;5113;41.822;23.564;2022-12-08T06:45:39;33.67;;;16.83;;
10144;SDS011;5113;41.822;23.564;2022-12-08T06:48:45;25.60;;;15.20;;
10144;SDS011;5113;41.822;23.564;2022-12-08T06:51:53;21.87;;;13.20;;
10144;SDS011;5113;41.822;23.564;2022-12-08T06:55:00;13.53;;;10.33;;
10144;SDS011;5113;41.822;23.564;2022-12-08T06:58:06;32.70;;;17.77;;
10144;SDS011;5113;41.822;23.564;2022-12-08T07:01:13;27.43;;;18.03;;
10144;SDS011;5113;41.822;23.564;2022-12-08T07:04:20;23.37;;;14.87;;
10144;SDS011;5113;41.822;23.564;2022-12-08T07:07:26;21.40;;;14.10;;
10144;SDS011;5113;41.822;23.564;2022-12-08T07:10:32;32.63;;;18.87;;
10144;SDS011;5113;41.822;23.564;2022-12-08T07:13:39;45.43;;;24.83;;
10144;SDS011;5113;41.822;23.564;2022-12-08T07:16:47;55.73;;;27.07;;
10144;SDS011;5113;41.822;23.564;2022-12-08T07:19:53;44.30;;;25.63;;
10144;SDS011;5113;41.822;23.564;2022-12-08T07:22:59;63.70;;;30.27;;
10144;SDS011;5113;41.822;23.564;2022-12-08T07:26:06;50.17;;;27.27;;
10144;SDS011;5113;41.822;23.564;2022-12-08T07:29:14;50.27;;;26.17;;
10144;SDS011;5113;41.822;23.564;2022-12-08T07:32:30;58.47;;;27.27;;
10144;SDS011;5113;41.822;23.564;2022-12-08T07:35:36;66.43;;;31.90;;
10144;SDS011;5113;41.822;23.564;2022-12-08T07:38:42;54.73;;;27.07;;
10144;SDS011;5113;41.822;23.564;2022-12-08T07:41:48;51.00;;;28.73;;
10144;SDS011;5113;41.822;23.564;2022-12-08T07:44:54;34.97;;;23.97;;
10144;SDS011;5113;41.822;23.564;2022-12-08T07:48:02;46.03;;;27.73;;
10144;SDS011;5113;41.822;23.564;2022-12-08T07:51:09;50.77;;;29.30;;
10144;SDS011;5113;41.822;23.564;2022-12-08T07:54:17;43.07;;;25.37;;
10144;SDS011;5113;41.822;23.564;2022-12-08T07:57:23;30.63;;;20.77;;
10144;SDS011;5113;41.822;23.564;2022-12-08T08:00:29;36.50;;;22.77;;
10144;SDS011;5113;41.822;23.564;2022-12-08T08:03:37;57.63;;;28.97;;
10144;SDS011;5113;41.822;23.564;2022-12-08T08:06:43;42.30;;;24.47;;
10144;SDS011;5113;41.822;23.564;2022-12-08T08:09:49;35.37;;;19.80;;
10144;SDS011;5113;41.822;23.564;2022-12-08T08:12:57;36.77;;;19.37;;
10144;SDS011;5113;41.822;23.564;2022-12-08T08:16:03;38.30;;;18.57;;
10144;SDS011;5113;41.822;23.564;2022-12-08T08:19:12;33.67;;;20.53;;
10144;SDS011;5113;41.822;23.564;2022-12-08T08:22:18;44.50;;;19.23;;
10144;SDS011;5113;41.822;23.564;2022-12-08T08:25:25;56.37;;;24.00;;
10144;SDS011;5113;41.822;23.564;2022-12-08T08:28:31;33.87;;;18.50;;
10144;SDS011;5113;41.822;23.564;2022-12-08T08:31:38;25.57;;;15.43;;
10144;SDS011;5113;41.822;23.564;2022-12-08T08:34:46;17.37;;;11.53;;
10144;SDS011;5113;41.822;23.564;2022-12-08T08:37:52;15.87;;;9.83;;
10144;SDS011;5113;41.822;23.564;2022-12-08T08:40:58;26.13;;;12.30;;
10144;SDS011;5113;41.822;23.564;2022-12-08T08:44:06;13.17;;;9.00;;
10144;SDS011;5113;41.822;23.564;2022-12-08T08:47:12;18.63;;;11.57;;
10144;SDS011;5113;41.822;23.564;2022-12-08T08:50:20;28.03;;;14.80;;
10144;SDS011;5113;41.822;23.564;2022-12-08T08:53:27;21.50;;;14.37;;
10144;SDS011;5113;41.822;23.564;2022-12-08T08:56:33;22.10;;;11.50;;
10144;SDS011;5113;41.822;23.564;2022-12-08T08:59:39;19.93;;;10.97;;
10144;SDS011;5113;41.822;23.564;2022-12-08T09:02:46;15.47;;;8.97;;
10144;SDS011;5113;41.822;23.564;2022-12-08T09:05:55;12.10;;;6.63;;
10144;SDS011;5113;41.822;23.564;2022-12-08T09:09:01;16.43;;;9.40;;
10144;SDS011;5113;41.822;23.564;2022-12-08T09:12:08;17.53;;;12.17;;
10144;SDS011;5113;41.822;23.564;2022-12-08T09:15:15;15.13;;;8.83;;
10144;SDS011;5113;41.822;23.564;2022-12-08T09:18:24;13.70;;;9.93;;
10144;SDS011;5113;41.822;23.564;2022-12-08T09:21:32;20.57;;;9.93;;
10144;SDS011;5113;41.822;23.564;2022-12-08T09:24:38;14.50;;;8.80;;
10144;SDS011;5113;41.822;23.564;2022-12-08T09:27:44;17.37;;;9.70;;
10144;SDS011;5113;41.822;23.564;2022-12-08T09:30:51;19.13;;;9.87;;
10144;SDS011;5113;41.822;23.564;2022-12-08T09:33:57;30.03;;;13.30;;
10144;SDS011;5113;41.822;23.564;2022-12-08T09:37:05;21.97;;;12.53;;
10144;SDS011;5113;41.822;23.564;2022-12-08T09:40:14;51.27;;;23.83;;
10144;SDS011;5113;41.822;23.564;2022-12-08T09:43:27;36.33;;;20.13;;
10144;SDS011;5113;41.822;23.564;2022-12-08T09:46:51;33.10;;;16.20;;
10144;SDS011;5113;41.822;23.564;2022-12-08T09:49:58;39.23;;;19.77;;
10144;SDS011;5113;41.822;23.564;2022-12-08T09:53:13;55.07;;;26.50;;
10144;SDS011;5113;41.822;23.564;2022-12-08T09:56:23;35.57;;;18.73;;
10144;SDS011;5113;41.822;23.564;2022-12-08T09:59:34;40.70;;;20.97;;
10144;SDS011;5113;41.822;23.564;2022-12-08T10:02:40;40.83;;;19.90;;
10144;SDS011;5113;41.822;23.564;2022-12-08T10:05:57;30.03;;;17.73;;
10144;SDS011;5113;41.822;23.564;2022-12-08T10:09:17;34.00;;;18.43;;
10144;SDS011;5113;41.822;23.564;2022-12-08T10:12:36;32.90;;;17.77;;
10144;SDS011;5113;41.822;23.564;2022-12-08T10:15:50;32.67;;;19.03;;
10144;SDS011;5113;41.822;23.564;2022-12-08T10:19:08;31.20;;;17.90;;
10144;SDS011;5113;41.822;23.564;2022-12-08T10:22:19;32.77;;;21.30;;
10144;SDS011;5113;41.822;23.564;2022-12-08T10:25:29;42.50;;;20.03;;
10144;SDS011;5113;41.822;23.564;2022-12-08T10:28:40;39.70;;;22.60;;
10144;SDS011;5113;41.822;23.564;2022-12-08T10:31:49;55.03;;;28.80;;
10144;SDS011;5113;41.822;23.564;2022-12-08T10:35:00;39.37;;;22.10;;
10144;SDS011;5113;41.822;23.564;2022-12-08T10:38:15;47.97;;;21.80;;
10144;SDS011;5113;41.822;23.564;2022-12-08T10:41:24;49.37;;;25.53;;
10144;SDS011;5113;41.822;23.564;2022-12-08T10:44:31;42.03;;;23.43;;
10144;SDS011;5113;41.822;23.564;2022-12-08T10:47:38;62.73;;;26.23;;
10144;SDS011;5113;41.822;23.564;2022-12-08T10:50:52;51.93;;;25.23;;
10144;SDS011;5113;41.822;23.564;2022-12-08T10:53:59;61.17;;;26.90;;
10144;SDS011;5113;41.822;23.564;2022-12-08T10:57:10;80.00;;;29.23;;
10144;SDS011;5113;41.822;23.564;2022-12-08T11:00:26;65.43;;;27.87;;
10144;SDS011;5113;41.822;23.564;2022-12-08T11:03:33;26.80;;;12.33;;
10144;SDS011;5113;41.822;23.564;2022-12-08T11:06:50;17.73;;;10.23;;
10144;SDS011;5113;41.822;23.564;2022-12-08T11:09:57;21.30;;;11.50;;
10144;SDS011;5113;41.822;23.564;2022-12-08T11:13:19;41.30;;;22.07;;
10144;SDS011;5113;41.822;23.564;2022-12-08T11:16:27;18.57;;;11.03;;
10144;SDS011;5113;41.822;23.564;2022-12-08T11:19:35;32.43;;;17.17;;
10144;SDS011;5113;41.822;23.564;2022-12-08T11:22:44;19.77;;;14.03;;
10144;SDS011;5113;41.822;23.564;2022-12-08T11:25:51;49.90;;;26.50;;
10144;SDS011;5113;41.822;23.564;2022-12-08T11:29:03;70.73;;;24.47;;
10144;SDS011;5113;41.822;23.564;2022-12-08T11:32:11;51.43;;;21.27;;
10144;SDS011;5113;41.822;23.564;2022-12-08T11:35:20;23.33;;;13.97;;
10144;SDS011;5113;41.822;23.564;2022-12-08T11:38:31;22.83;;;12.90;;
10144;SDS011;5113;41.822;23.564;2022-12-08T11:41:38;34.83;;;17.87;;
10144;SDS011;5113;41.822;23.564;2022-12-08T11:44:51;76.63;;;30.50;;
10144;SDS011;5113;41.822;23.564;2022-12-08T11:48:05;64.50;;;26.03;;
10144;SDS011;5113;41.822;23.564;2022-12-08T11:51:20;43.37;;;21.90;;
10144;SDS011;5113;41.822;23.564;2022-12-08T11:54:33;43.13;;;21.03;;
10144;SDS011;5113;41.822;23.564;2022-12-08T11:57:43;31.53;;;16.33;;
10144;SDS011;5113;41.822;23.564;2022-12-08T12:00:52;34.53;;;16.97;;
10144;SDS011;5113;41.822;23.564;2022-12-08T12:04:00;53.07;;;26.83;;
10144;SDS011;5113;41.822;23.564;2022-12-08T12:11:01;30.33;;;16.30;;
10144;SDS011;5113;41.822;23.564;2022-12-08T12:14:43;28.50;;;12.53;;
10144;SDS011;5113;41.822;23.564;2022-12-08T12:18:00;16.73;;;9.07;;
10144;SDS011;5113;41.822;23.564;2022-12-08T12:21:14;20.93;;;12.60;;
10144;SDS011;5113;41.822;23.564;2022-12-08T12:24:25;24.57;;;10.50;;
10144;SDS011;5113;41.822;23.564;2022-12-08T12:27:39;17.73;;;10.77;;
10144;SDS011;5113;41.822;23.564;2022-12-08T12:30:53;27.03;;;11.40;;
10144;SDS011;5113;41.822;23.564;2022-12-08T12:34:06;26.90;;;13.33;;
10144;SDS011;5113;41.822;23.564;2022-12-08T12:37:17;10.10;;;6.83;;
10144;SDS011;5113;41.822;23.564;2022-12-08T12:40:27;12.70;;;7.33;;
10144;SDS011;5113;41.822;23.564;2022-12-08T12:43:39;58.67;;;21.07;;
10144;SDS011;5113;41.822;23.564;2022-12-08T12:47:09;30.10;;;15.07;;
10144;SDS011;5113;41.822;23.564;2022-12-08T12:53:48;22.33;;;12.87;;
10144;SDS011;5113;41.822;23.564;2022-12-08T12:56:56;40.27;;;18.03;;
10144;SDS011;5113;41.822;23.564;2022-12-08T13:00:20;33.70;;;15.73;;
10144;SDS011;5113;41.822;23.564;2022-12-08T13:03:29;17.73;;;10.67;;
10144;SDS011;5113;41.822;23.564;2022-12-08T13:06:38;26.20;;;13.43;;
10144;SDS011;5113;41.822;23.564;2022-12-08T13:09:47;18.53;;;12.00;;
10144;SDS011;5113;41.822;23.564;2022-12-08T13:13:06;25.37;;;14.80;;
10144;SDS011;5113;41.822;23.564;2022-12-08T13:16:23;23.00;;;12.47;;
10144;SDS011;5113;41.822;23.564;2022-12-08T13:19:31;12.00;;;6.97;;
10144;SDS011;5113;41.822;23.564;2022-12-08T13:23:01;11.20;;;6.47;;
10144;SDS011;5113;41.822;23.564;2022-12-08T13:26:19;12.67;;;8.80;;
10144;SDS011;5113;41.822;23.564;2022-12-08T13:29:27;8.80;;;6.83;;
10144;SDS011;5113;41.822;23.564;2022-12-08T13:36:20;14.33;;;9.27;;
10144;SDS011;5113;41.822;23.564;2022-12-08T13:39:33;9.80;;;7.50;;
10144;SDS011;5113;41.822;23.564;2022-12-08T13:42:46;14.33;;;9.63;;
10144;SDS011;5113;41.822;23.564;2022-12-08T13:46:03;23.77;;;12.47;;
10144;SDS011;5113;41.822;23.564;2022-12-08T13:49:33;20.63;;;12.90;;
10144;SDS011;5113;41.822;23.564;2022-12-08T13:53:09;24.97;;;14.27;;
10144;SDS011;5113;41.822;23.564;2022-12-08T13:56:41;37.00;;;17.67;;
10144;SDS011;5113;41.822;23.564;2022-12-08T14:00:13;27.10;;;14.30;;
10144;SDS011;5113;41.822;23.564;2022-12-08T14:03:21;17.77;;;10.53;;
10144;SDS011;5113;41.822;23.564;2022-12-08T14:06:28;16.77;;;10.87;;
10144;SDS011;5113;41.822;23.564;2022-12-08T14:09:40;25.10;;;10.60;;
10144;SDS011;5113;41.822;23.564;2022-12-08T14:12:50;22.63;;;14.90;;
10144;SDS011;5113;41.822;23.564;2022-12-08T14:16:00;29.90;;;14.90;;
10144;SDS011;5113;41.822;23.564;2022-12-08T14:19:13;14.50;;;9.73;;
10144;SDS011;5113;41.822;23.564;2022-12-08T14:22:22;28.13;;;15.47;;
10144;SDS011;5113;41.822;23.564;2022-12-08T14:25:29;23.10;;;13.47;;
10144;SDS011;5113;41.822;23.564;2022-12-08T14:28:37;17.57;;;11.93;;
10144;SDS011;5113;41.822;23.564;2022-12-08T14:31:48;9.27;;;8.30;;
10144;SDS011;5113;41.822;23.564;2022-12-08T14:34:56;17.67;;;8.73;;
10144;SDS011;5113;41.822;23.564;2022-12-08T14:38:05;135.10;;;49.50;;
10144;SDS011;5113;41.822;23.564;2022-12-08T14:41:23;70.30;;;30.73;;
10144;SDS011;5113;41.822;23.564;2022-12-08T14:44:34;67.73;;;28.83;;
10144;SDS011;5113;41.822;23.564;2022-12-08T14:47:44;56.90;;;29.10;;
10144;SDS011;5113;41.822;23.564;2022-12-08T14:50:56;57.93;;;27.93;;
10144;SDS011;5113;41.822;23.564;2022-12-08T14:54:06;46.03;;;24.07;;
10144;SDS011;5113;41.822;23.564;2022-12-08T14:57:14;57.00;;;27.23;;
10144;SDS011;5113;41.822;23.564;2022-12-08T15:00:23;66.73;;;27.53;;
10144;SDS011;5113;41.822;23.564;2022-12-08T15:03:30;110.90;;;48.27;;
10144;SDS011;5113;41.822;23.564;2022-12-08T15:06:38;108.67;;;46.67;;
10144;SDS011;5113;41.822;23.564;2022-12-08T15:10:05;110.20;;;48.23;;
10144;SDS011;5113;41.822;23.564;2022-12-08T15:13:21;94.07;;;41.67;;
10144;SDS011;5113;41.822;23.564;2022-12-08T15:16:30;95.40;;;45.20;;
10144;SDS011;5113;41.822;23.564;2022-12-08T15:19:53;63.47;;;33.80;;
10144;SDS011;5113;41.822;23.564;2022-12-08T15:23:00;70.10;;;33.33;;
10144;SDS011;5113;41.822;23.564;2022-12-08T15:26:07;65.70;;;34.50;;
10144;SDS011;5113;41.822;23.564;2022-12-08T15:29:23;83.80;;;38.77;;
10144;SDS011;5113;41.822;23.564;2022-12-08T15:32:33;75.70;;;35.10;;
10144;SDS011;5113;41.822;23.564;2022-12-08T15:35:39;76.27;;;35.40;;
10144;SDS011;5113;41.822;23.564;2022-12-08T15:38:46;77.03;;;38.23;;
10144;SDS011;5113;41.822;23.564;2022-12-08T15:41:52;68.57;;;38.57;;
10144;SDS011;5113;41.822;23.564;2022-12-08T15:44:58;74.00;;;35.23;;
10144;SDS011;5113;41.822;23.564;2022-12-08T15:48:06;63.70;;;30.73;;
10144;SDS011;5113;41.822;23.564;2022-12-08T15:51:18;86.30;;;41.20;;
10144;SDS011;5113;41.822;23.564;2022-12-08T15:54:24;53.93;;;28.13;;
10144;SDS011;5113;41.822;23.564;2022-12-08T15:57:30;63.13;;;34.77;;
10144;SDS011;5113;41.822;23.564;2022-12-08T16:00:57;83.53;;;40.87;;
10144;SDS011;5113;41.822;23.564;2022-12-08T16:04:06;108.53;;;47.40;;
10144;SDS011;5113;41.822;23.564;2022-12-08T16:07:33;164.17;;;78.87;;
10144;SDS011;5113;41.822;23.564;2022-12-08T16:10:42;199.93;;;98.30;;
10144;SDS011;5113;41.822;23.564;2022-12-08T16:14:08;135.47;;;61.57;;
10144;SDS011;5113;41.822;23.564;2022-12-08T16:17:33;96.47;;;48.07;;
10144;SDS011;5113;41.822;23.564;2022-12-08T16:20:42;73.73;;;37.23;;
10144;SDS011;5113;41.822;23.564;2022-12-08T16:24:08;79.80;;;40.87;;
10144;SDS011;5113;41.822;23.564;2022-12-08T16:27:18;51.57;;;30.07;;
10144;SDS011;5113;41.822;23.564;2022-12-08T16:30:46;42.17;;;24.77;;
10144;SDS011;5113;41.822;23.564;2022-12-08T16:33:52;35.67;;;21.90;;
10144;SDS011;5113;41.822;23.564;2022-12-08T16:37:00;33.97;;;20.83;;
10144;SDS011;5113;41.822;23.564;2022-12-08T16:40:07;49.33;;;26.60;;
10144;SDS011;5113;41.822;23.564;2022-12-08T16:43:15;39.03;;;20.83;;
10144;SDS011;5113;41.822;23.564;2022-12-08T16:46:20;39.63;;;22.50;;
10144;SDS011;5113;41.822;23.564;2022-12-08T16:49:31;33.27;;;20.03;;
10144;SDS011;5113;41.822;23.564;2022-12-08T16:52:38;32.67;;;19.00;;
10144;SDS011;5113;41.822;23.564;2022-12-08T16:55:45;29.60;;;17.27;;
10144;SDS011;5113;41.822;23.564;2022-12-08T16:58:51;32.30;;;19.33;;
10144;SDS011;5113;41.822;23.564;2022-12-08T17:01:57;37.10;;;18.13;;
10144;SDS011;5113;41.822;23.564;2022-12-08T17:05:03;27.93;;;18.17;;
10144;SDS011;5113;41.822;23.564;2022-12-08T17:08:11;41.23;;;25.83;;
10144;SDS011;5113;41.822;23.564;2022-12-08T17:11:21;56.07;;;30.83;;
10144;SDS011;5113;41.822;23.564;2022-12-08T17:14:31;41.03;;;24.03;;
10144;SDS011;5113;41.822;23.564;2022-12-08T17:17:38;48.40;;;27.77;;
10144;SDS011;5113;41.822;23.564;2022-12-08T17:20:45;25.97;;;14.20;;
10144;SDS011;5113;41.822;23.564;2022-12-08T17:23:52;42.77;;;24.47;;
10144;SDS011;5113;41.822;23.564;2022-12-08T17:26:59;46.63;;;24.00;;
10144;SDS011;5113;41.822;23.564;2022-12-08T17:30:08;38.30;;;18.67;;
10144;SDS011;5113;41.822;23.564;2022-12-08T17:33:19;39.93;;;20.27;;
10144;SDS011;5113;41.822;23.564;2022-12-08T17:36:30;31.33;;;16.53;;
10144;SDS011;5113;41.822;23.564;2022-12-08T17:39:38;47.90;;;23.53;;
10144;SDS011;5113;41.822;23.564;2022-12-08T17:42:45;71.07;;;33.43;;
10144;SDS011;5113;41.822;23.564;2022-12-08T17:45:51;40.90;;;21.60;;
10144;SDS011;5113;41.822;23.564;2022-12-08T17:48:59;50.60;;;25.40;;
10144;SDS011;5113;41.822;23.564;2022-12-08T17:52:06;68.20;;;31.53;;
10144;SDS011;5113;41.822;23.564;2022-12-08T17:55:14;69.73;;;33.90;;
10144;SDS011;5113;41.822;23.564;2022-12-08T17:58:21;62.57;;;29.60;;
10144;SDS011;5113;41.822;23.564;2022-12-08T18:01:29;52.87;;;27.93;;
10144;SDS011;5113;41.822;23.564;2022-12-08T18:04:38;49.93;;;26.37;;
10144;SDS011;5113;41.822;23.564;2022-12-08T18:07:45;63.33;;;31.77;;
10144;SDS011;5113;41.822;23.564;2022-12-08T18:10:53;62.77;;;29.00;;
10144;SDS011;5113;41.822;23.564;2022-12-08T18:13:59;51.63;;;28.43;;
10144;SDS011;5113;41.822;23.564;2022-12-08T18:17:12;77.77;;;34.57;;
10144;SDS011;5113;41.822;23.564;2022-12-08T18:20:18;52.23;;;28.40;;
10144;SDS011;5113;41.822;23.564;2022-12-08T18:23:25;56.40;;;27.43;;
10144;SDS011;5113;41.822;23.564;2022-12-08T18:26:32;58.20;;;31.80;;
10144;SDS011;5113;41.822;23.564;2022-12-08T18:29:39;87.90;;;40.27;;
10144;SDS011;5113;41.822;23.564;2022-12-08T18:32:46;79.50;;;37.57;;
10144;SDS011;5113;41.822;23.564;2022-12-08T18:35:59;97.70;;;40.53;;
10144;SDS011;5113;41.822;23.564;2022-12-08T18:39:05;99.60;;;46.43;;
10144;SDS011;5113;41.822;23.564;2022-12-08T18:42:16;96.23;;;50.03;;
10144;SDS011;5113;41.822;23.564;2022-12-08T18:45:28;139.07;;;55.37;;
10144;SDS011;5113;41.822;23.564;2022-12-08T18:48:34;100.97;;;40.47;;
10144;SDS011;5113;41.822;23.564;2022-12-08T18:51:41;67.63;;;34.50;;
10144;SDS011;5113;41.822;23.564;2022-12-08T18:54:47;84.33;;;46.90;;